Time;durP1;ratioP1;P1;durP2;ratioP2;P2;SDS_P1;SDS_P2;PMS_P1;PMS_P2;Temp;Humidity;BMP_temperature;BMP_pressure;BME280_temperature;BME280_humidity;BME280_pressure;Samples;Min_cycle;Max_cycle;Signal;HPM_P1;HPM_P2
2022/06/19 00:00:12;;;;;;;6.60;3.37;;;27.50;50.10;;;;;;6122181;23;20385;-81
2022/06/19 00:02:43;;;;;;;7.43;3.97;;;27.50;50.10;;;;;;6148010;23;20385;-83
2022/06/19 00:05:14;;;;;;;4.47;3.10;;;27.50;50.10;;;;;;6098519;23;20393;-83
2022/06/19 00:07:44;;;;;;;8.47;3.17;;;27.60;50.20;;;;;;6123121;23;20416;-83
2022/06/19 00:10:11;;;;;;;4.67;3.00;;;27.50;50.10;;;;;;6148289;23;20411;-83
2022/06/19 00:12:37;;;;;;;5.13;3.27;;;27.50;50.10;;;;;;6147905;23;20369;-83
2022/06/19 00:15:04;;;;;;;5.43;3.97;;;27.50;50.20;;;;;;6147793;23;20389;-83
2022/06/19 00:17:30;;;;;;;5.87;3.60;;;27.50;50.20;;;;;;6122592;23;20396;-83
2022/06/19 00:19:55;;;;;;;8.97;4.00;;;27.50;50.20;;;;;;6147852;23;20373;-83
2022/06/19 00:22:21;;;;;;;7.90;3.30;;;27.50;50.20;;;;;;6121969;23;20157;-82
2022/06/19 00:24:47;;;;;;;10.00;4.40;;;27.50;50.20;;;;;;6122320;23;20181;-82
2022/06/19 00:27:13;;;;;;;4.63;3.20;;;27.50;50.20;;;;;;6122628;23;20222;-83
2022/06/19 00:29:39;;;;;;;6.47;3.47;;;27.50;50.20;;;;;;6121731;23;20424;-83
2022/06/19 00:32:07;;;;;;;5.50;3.53;;;27.50;50.20;;;;;;6121975;23;20161;-83
2022/06/19 00:34:35;;;;;;;6.00;3.27;;;27.50;50.20;;;;;;6121922;23;20381;-83
2022/06/19 00:37:03;;;;;;;6.10;3.97;;;27.50;50.20;;;;;;6147828;23;20734;-83
2022/06/19 00:39:32;;;;;;;5.17;3.20;;;27.60;50.30;;;;;;6147706;23;20387;-83
2022/06/19 00:41:59;;;;;;;5.67;4.00;;;27.60;50.30;;;;;;6122151;23;20385;-83
2022/06/19 00:44:26;;;;;;;6.43;3.30;;;27.50;50.20;;;;;;6122489;23;20381;-83
2022/06/19 00:47:08;;;;;;;5.30;3.43;;;27.60;50.30;;;;;;6147705;23;20373;-83
2022/06/19 00:49:47;;;;;;;4.87;3.20;;;27.60;50.90;;;;;;6148042;23;20449;-82
2022/06/19 00:52:17;;;;;;;6.20;3.17;;;27.50;50.20;;;;;;6122171;23;20373;-82
2022/06/19 00:54:49;;;;;;;4.33;2.47;;;27.50;50.30;;;;;;6147564;23;20357;-82
2022/06/19 00:57:16;;;;;;;4.87;3.30;;;27.60;50.30;;;;;;6122189;23;20445;-82
2022/06/19 00:59:51;;;;;;;7.27;3.70;;;27.60;50.30;;;;;;6098605;23;20472;-81
2022/06/19 01:02:17;;;;;;;7.50;3.60;;;27.50;50.30;;;;;;6147173;23;20357;-83
2022/06/19 01:04:48;;;;;;;5.20;3.23;;;27.50;50.30;;;;;;6147356;23;20387;-82
2022/06/19 01:07:15;;;;;;;7.37;3.77;;;27.50;50.30;;;;;;6122619;23;20377;-83
2022/06/19 01:09:41;;;;;;;5.03;3.27;;;27.60;50.30;;;;;;6121676;23;20452;-83
2022/06/19 01:12:08;;;;;;;6.07;3.30;;;27.50;50.30;;;;;;6122166;23;20392;-83
2022/06/19 01:14:35;;;;;;;3.10;2.73;;;27.50;50.30;;;;;;6117548;23;20226;-83
2022/06/19 01:17:05;;;;;;;6.90;3.57;;;27.50;50.30;;;;;;6116278;23;20706;-83
2022/06/19 01:19:38;;;;;;;8.03;3.60;;;27.60;50.30;;;;;;6117664;23;20400;-83
2022/06/19 01:22:32;;;;;;;4.20;2.93;;;27.50;50.30;;;;;;6117628;23;20370;-83
2022/06/19 01:25:10;;;;;;;4.17;3.17;;;27.50;50.30;;;;;;6115914;23;20370;-83
2022/06/19 01:30:35;;;;;;;4.33;3.27;;;27.50;50.30;;;;;;6117207;23;20420;-83
2022/06/19 01:33:05;;;;;;;5.73;3.27;;;27.50;50.30;;;;;;6115023;23;20479;-83
2022/06/19 01:35:34;;;;;;;6.80;3.87;;;27.50;50.40;;;;;;6117831;23;20370;-82
2022/06/19 01:38:05;;;;;;;4.87;3.07;;;27.50;50.40;;;;;;6114627;23;20378;-83
2022/06/19 01:40:34;;;;;;;4.33;3.00;;;27.50;50.30;;;;;;6116521;23;20382;-83
2022/06/19 01:43:00;;;;;;;4.67;3.30;;;27.50;50.90;;;;;;6118620;23;20425;-83
2022/06/19 01:45:26;;;;;;;6.30;2.90;;;27.60;50.40;;;;;;6117716;23;20438;-83
2022/06/19 01:47:52;;;;;;;4.80;3.00;;;27.50;50.40;;;;;;6117778;23;20389;-83
2022/06/19 01:50:22;;;;;;;7.40;3.83;;;27.50;50.30;;;;;;6117055;23;20177;-82
2022/06/19 01:52:54;;;;;;;4.70;2.83;;;27.60;50.90;;;;;;6116555;23;20378;-82
2022/06/19 01:55:28;;;;;;;4.23;3.83;;;27.50;50.30;;;;;;6117101;23;20374;-82
2022/06/19 01:57:57;;;;;;;6.37;3.37;;;27.50;50.30;;;;;;6117276;23;20377;-82
2022/06/19 02:00:27;;;;;;;4.50;3.30;;;27.60;50.40;;;;;;6118514;23;20389;-83
2022/06/19 02:03:28;;;;;;;4.70;3.07;;;27.50;50.30;;;;;;6116989;23;20389;-83
2022/06/19 02:05:55;;;;;;;5.70;3.53;;;27.60;50.40;;;;;;6116673;23;20390;-82
2022/06/19 02:08:21;;;;;;;4.73;2.73;;;27.60;50.40;;;;;;6116650;23;20389;-83
2022/06/19 02:10:48;;;;;;;4.90;2.87;;;27.50;50.40;;;;;;6117061;23;20443;-83
2022/06/19 02:13:17;;;;;;;5.37;3.80;;;27.50;50.40;;;;;;6120808;23;20377;-83
2022/06/19 02:15:44;;;;;;;3.83;2.93;;;27.50;50.40;;;;;;6122677;23;20365;-82
2022/06/19 02:18:17;;;;;;;5.67;3.30;;;27.50;50.40;;;;;;6122051;23;20385;-82
2022/06/19 02:20:45;;;;;;;3.70;3.10;;;27.60;50.40;;;;;;6122259;23;20395;-82
2022/06/19 02:23:11;;;;;;;3.27;2.80;;;27.60;50.40;;;;;;6147174;23;20380;-82
2022/06/19 02:25:41;;;;;;;6.70;3.27;;;27.60;50.30;;;;;;6121732;23;20369;-83
2022/06/19 02:28:09;;;;;;;3.83;3.10;;;27.60;50.30;;;;;;6122390;23;20381;-82
2022/06/19 02:30:35;;;;;;;4.47;2.80;;;27.50;50.30;;;;;;6121159;23;20444;-83
2022/06/19 02:33:04;;;;;;;4.67;3.87;;;27.60;50.30;;;;;;6147511;23;20365;-83
2022/06/19 02:35:30;;;;;;;4.50;2.83;;;27.60;50.30;;;;;;6121176;23;20385;-82
2022/06/19 02:37:56;;;;;;;3.23;2.60;;;27.60;50.30;;;;;;6122174;23;20372;-82
2022/06/19 02:40:30;;;;;;;6.13;2.87;;;27.50;50.30;;;;;;6146922;23;20155;-82
2022/06/19 02:42:56;;;;;;;6.53;3.87;;;27.60;50.30;;;;;;6148887;23;20468;-82
2022/06/19 02:45:25;;;;;;;7.03;3.40;;;27.60;50.30;;;;;;6099530;23;20401;-82
2022/06/19 02:47:52;;;;;;;5.00;3.03;;;27.60;50.30;;;;;;6148086;23;20380;-83
2022/06/19 02:50:23;;;;;;;3.83;2.80;;;27.60;50.30;;;;;;6148833;23;20420;-83
2022/06/19 02:52:50;;;;;;;3.57;2.80;;;27.60;50.30;;;;;;6122835;23;20369;-83
2022/06/19 02:55:17;;;;;;;3.67;3.00;;;27.60;50.30;;;;;;6123685;23;20381;-82
2022/06/19 02:57:42;;;;;;;5.67;3.67;;;27.60;50.30;;;;;;6122235;23;20385;-83
2022/06/19 03:00:14;;;;;;;4.83;2.63;;;27.50;50.30;;;;;;6148475;23;20408;-82
2022/06/19 03:02:40;;;;;;;3.80;3.20;;;27.50;50.30;;;;;;6147900;23;20176;-83
2022/06/19 03:05:10;;;;;;;4.20;3.20;;;27.50;50.30;;;;;;6148866;23;20377;-82
2022/06/19 03:07:36;;;;;;;4.13;2.83;;;27.60;50.30;;;;;;6122994;23;20400;-83
2022/06/19 03:10:02;;;;;;;4.13;2.97;;;27.50;50.30;;;;;;6122920;23;20420;-83
2022/06/19 03:12:28;;;;;;;3.90;2.63;;;27.50;50.40;;;;;;6148126;23;20157;-83
2022/06/19 03:14:54;;;;;;;4.43;2.50;;;27.50;50.40;;;;;;6148389;23;20416;-82
2022/06/19 03:17:22;;;;;;;3.90;2.73;;;27.50;50.30;;;;;;6122529;23;20154;-83
2022/06/19 03:19:48;;;;;;;3.70;2.90;;;27.60;50.40;;;;;;6123007;23;20395;-83
2022/06/19 03:22:14;;;;;;;4.07;2.83;;;27.60;50.90;;;;;;6148039;23;20373;-83
2022/06/19 03:24:41;;;;;;;6.33;3.17;;;27.60;50.40;;;;;;6122743;23;20381;-83
2022/06/19 03:27:07;;;;;;;4.37;3.43;;;27.60;50.40;;;;;;6122905;23;20381;-83
2022/06/19 03:29:33;;;;;;;3.70;2.97;;;27.60;50.40;;;;;;6098087;23;20432;-82
2022/06/19 03:32:00;;;;;;;3.83;2.53;;;27.60;50.40;;;;;;6148042;23;20399;-83
2022/06/19 03:34:26;;;;;;;5.50;2.97;;;27.60;50.40;;;;;;6148087;23;20141;-83
2022/06/19 03:36:52;;;;;;;4.50;3.37;;;27.60;50.40;;;;;;6122477;23;20406;-83
2022/06/19 03:39:18;;;;;;;3.17;2.80;;;27.60;50.40;;;;;;6123045;23;20195;-83
2022/06/19 03:41:46;;;;;;;5.53;2.90;;;27.60;50.40;;;;;;6148108;23;20161;-83
2022/06/19 03:44:11;;;;;;;3.47;2.30;;;27.60;50.40;;;;;;6121443;23;20389;-82
2022/06/19 03:46:37;;;;;;;4.63;2.83;;;27.60;50.40;;;;;;6147234;23;20428;-83
2022/06/19 03:49:04;;;;;;;4.20;3.00;;;27.60;50.40;;;;;;6121239;23;20183;-83
2022/06/19 03:51:30;;;;;;;4.60;3.10;;;27.60;50.40;;;;;;6121627;23;20708;-82
2022/06/19 03:53:56;;;;;;;4.30;3.00;;;27.60;50.40;;;;;;6122182;23;20405;-82
2022/06/19 03:56:27;;;;;;;6.00;2.70;;;27.60;50.40;;;;;;6147082;23;20388;-82
2022/06/19 03:58:53;;;;;;;3.90;2.60;;;27.60;50.40;;;;;;6148231;23;20362;-82
2022/06/19 04:01:23;;;;;;;4.60;3.10;;;27.60;50.40;;;;;;6123071;23;20385;-82
2022/06/19 04:03:52;;;;;;;3.20;2.43;;;27.60;50.40;;;;;;6148455;23;20357;-82
2022/06/19 04:06:20;;;;;;;3.30;2.60;;;27.60;50.40;;;;;;6120902;23;20408;-82
2022/06/19 04:08:46;;;;;;;3.40;2.63;;;27.60;50.40;;;;;;6120132;23;20433;-83
2022/06/19 04:11:14;;;;;;;3.70;2.30;;;27.60;50.40;;;;;;6122214;23;20444;-83
2022/06/19 04:13:40;;;;;;;3.40;2.90;;;27.60;50.40;;;;;;6117210;23;20436;-83
2022/06/19 04:16:08;;;;;;;4.90;2.60;;;27.60;50.40;;;;;;6117399;23;20728;-82
2022/06/19 04:18:34;;;;;;;6.10;3.67;;;27.60;50.40;;;;;;6116899;23;20383;-83
2022/06/19 04:21:00;;;;;;;4.20;2.77;;;27.60;50.40;;;;;;6118165;23;20370;-82
2022/06/19 04:23:27;;;;;;;4.00;3.00;;;27.60;50.40;;;;;;6118298;23;20401;-82
2022/06/19 04:25:53;;;;;;;4.93;2.70;;;27.60;50.40;;;;;;6116916;23;20397;-83
2022/06/19 04:28:25;;;;;;;4.40;2.63;;;27.60;50.40;;;;;;6116603;23;20409;-83
2022/06/19 04:30:52;;;;;;;3.00;2.60;;;27.60;50.40;;;;;;6117225;23;20374;-83
2022/06/19 04:33:19;;;;;;;3.13;2.77;;;27.60;50.50;;;;;;6116577;23;20388;-83
2022/06/19 04:35:47;;;;;;;4.23;3.07;;;27.60;50.50;;;;;;6117974;23;20459;-83
2022/06/19 04:38:13;;;;;;;4.70;3.00;;;27.60;50.50;;;;;;6116284;23;20377;-83
2022/06/19 04:40:39;;;;;;;4.70;2.57;;;27.60;50.50;;;;;;6116385;23;20460;-82
2022/06/19 04:43:05;;;;;;;4.27;2.40;;;27.60;50.50;;;;;;6118589;23;20381;-82
2022/06/19 04:45:32;;;;;;;3.43;2.63;;;27.60;50.50;;;;;;6116607;23;20154;-82
2022/06/19 04:47:59;;;;;;;5.47;3.17;;;27.60;50.50;;;;;;6117491;23;20393;-82
2022/06/19 04:50:25;;;;;;;3.23;2.67;;;27.60;50.50;;;;;;6116812;23;20433;-83
2022/06/19 04:52:51;;;;;;;5.33;3.47;;;27.70;50.60;;;;;;6116670;23;20378;-83
2022/06/19 04:55:18;;;;;;;2.80;2.40;;;27.70;50.60;;;;;;6116146;23;20389;-83
2022/06/19 04:57:44;;;;;;;2.73;2.43;;;27.70;50.60;;;;;;6118186;23;20192;-83
2022/06/19 05:00:13;;;;;;;3.17;2.40;;;27.70;50.60;;;;;;6115725;23;20378;-83
2022/06/19 05:02:39;;;;;;;4.60;3.20;;;27.70;50.60;;;;;;6115715;23;20390;-83
2022/06/19 05:05:07;;;;;;;5.73;2.87;;;27.70;50.60;;;;;;6117145;23;20389;-83
2022/06/19 05:07:33;;;;;;;4.20;2.70;;;27.70;50.60;;;;;;6116796;23;20402;-82
2022/06/19 05:10:00;;;;;;;3.80;2.73;;;27.70;50.60;;;;;;6116576;23;20449;-82
2022/06/19 05:12:28;;;;;;;3.83;2.73;;;27.70;50.60;;;;;;6116891;23;20382;-82
2022/06/19 05:14:54;;;;;;;5.60;3.10;;;27.70;50.60;;;;;;6141148;23;20477;-83
2022/06/19 05:17:20;;;;;;;5.20;3.03;;;27.70;50.70;;;;;;6122461;23;20373;-83
2022/06/19 05:19:46;;;;;;;3.20;2.50;;;27.70;50.70;;;;;;6122639;23;20161;-83
2022/06/19 05:22:12;;;;;;;3.23;2.50;;;27.80;50.70;;;;;;6121042;23;20396;-82
2022/06/19 05:24:38;;;;;;;4.20;3.57;;;27.70;50.70;;;;;;6147210;23;20149;-82
2022/06/19 05:27:10;;;;;;;4.10;2.60;;;27.70;50.70;;;;;;6120607;23;20188;-82
2022/06/19 05:29:40;;;;;;;3.27;2.97;;;27.80;50.70;;;;;;6147528;23;20169;-82
2022/06/19 05:32:06;;;;;;;3.60;2.53;;;27.70;50.70;;;;;;6120966;23;20381;-82
2022/06/19 05:34:34;;;;;;;3.07;2.30;;;27.70;50.70;;;;;;6146970;23;20377;-82
2022/06/19 05:37:02;;;;;;;4.13;2.63;;;27.80;50.70;;;;;;6121231;23;20392;-85
2022/06/19 05:39:28;;;;;;;5.80;3.23;;;27.70;50.70;;;;;;6146685;23;20372;-81
2022/06/19 05:41:57;;;;;;;3.90;2.70;;;27.80;50.70;;;;;;6121881;23;20385;-81
2022/06/19 05:44:28;;;;;;;4.33;3.00;;;27.80;50.70;;;;;;6122667;23;20157;-81
2022/06/19 05:46:54;;;;;;;5.90;2.87;;;27.80;50.80;;;;;;6121873;23;20373;-81
2022/06/19 05:49:22;;;;;;;3.30;2.37;;;27.80;50.80;;;;;;6147465;23;20423;-81
2022/06/19 05:51:48;;;;;;;4.30;2.43;;;27.80;50.80;;;;;;6121659;23;20154;-82
2022/06/19 05:54:14;;;;;;;2.80;2.30;;;27.80;50.80;;;;;;6115061;23;20404;-80
2022/06/19 05:56:41;;;;;;;4.40;2.87;;;27.80;50.80;;;;;;6138913;23;20153;-80
2022/06/19 05:59:07;;;;;;;5.30;3.27;;;27.80;50.70;;;;;;6113091;23;20252;-80
2022/06/19 06:01:32;;;;;;;4.20;2.87;;;27.80;50.70;;;;;;6113258;23;20396;-80
2022/06/19 06:03:59;;;;;;;4.43;3.03;;;27.80;50.70;;;;;;6118958;23;20157;-82
2022/06/19 06:06:31;;;;;;;4.87;3.63;;;27.80;50.70;;;;;;6121464;23;20157;-82
2022/06/19 06:08:57;;;;;;;3.70;2.87;;;27.80;50.70;;;;;;6120390;23;20420;-81
2022/06/19 06:11:24;;;;;;;5.83;3.10;;;27.80;50.70;;;;;;6146221;23;20448;-82
2022/06/19 06:13:50;;;;;;;3.80;3.00;;;27.80;50.70;;;;;;6146423;23;20456;-82
2022/06/19 06:16:18;;;;;;;4.40;3.33;;;27.80;50.70;;;;;;6146288;23;20365;-82
2022/06/19 06:18:45;;;;;;;4.13;2.83;;;27.80;50.60;;;;;;6122576;23;20381;-82
2022/06/19 06:21:18;;;;;;;3.50;3.20;;;27.80;50.60;;;;;;6123238;23;20381;-82
2022/06/19 06:23:44;;;;;;;4.83;2.90;;;27.80;50.60;;;;;;6149170;23;20456;-82
2022/06/19 06:26:19;;;;;;;3.37;3.07;;;27.80;50.60;;;;;;6147531;23;20870;-83
2022/06/19 06:28:48;;;;;;;8.20;3.63;;;27.80;50.60;;;;;;6149467;23;20404;-82
2022/06/19 06:31:15;;;;;;;3.90;3.13;;;27.80;50.60;;;;;;6123195;23;20384;-82
2022/06/19 06:33:43;;;;;;;3.90;3.10;;;27.80;50.60;;;;;;6123382;23;20417;-82
2022/06/19 06:36:10;;;;;;;4.53;2.90;;;27.80;50.60;;;;;;6123243;23;20448;-82
2022/06/19 06:38:36;;;;;;;5.03;2.80;;;27.80;50.60;;;;;;6149643;23;20369;-82
2022/06/19 06:41:05;;;;;;;3.07;2.87;;;27.80;50.60;;;;;;6123462;23;20449;-81
2022/06/19 06:43:31;;;;;;;3.00;2.80;;;27.80;50.60;;;;;;6123543;23;20392;-82
2022/06/19 06:46:05;;;;;;;3.63;2.60;;;27.80;50.60;;;;;;6123587;23;20385;-82
2022/06/19 06:48:31;;;;;;;3.37;3.07;;;27.80;50.60;;;;;;6149108;23;20173;-82
2022/06/19 06:50:56;;;;;;;3.70;2.97;;;27.80;50.60;;;;;;6148683;23;20373;-82
2022/06/19 06:53:25;;;;;;;6.30;3.00;;;27.80;50.60;;;;;;6147603;23;20369;-82
2022/06/19 06:55:56;;;;;;;3.20;2.77;;;27.80;50.60;;;;;;6144290;23;20180;-80
2022/06/19 06:58:22;;;;;;;3.37;2.80;;;27.80;50.50;;;;;;6144287;23;20357;-80
2022/06/19 07:00:47;;;;;;;3.23;3.00;;;27.80;50.50;;;;;;6144253;23;20380;-80
2022/06/19 07:03:13;;;;;;;3.27;2.70;;;27.80;50.50;;;;;;6145719;23;20168;-80
2022/06/19 07:05:39;;;;;;;3.43;2.40;;;27.80;50.50;;;;;;6144341;23;20153;-81
2022/06/19 07:08:05;;;;;;;2.87;2.40;;;27.80;50.50;;;;;;6118573;23;20161;-80
2022/06/19 07:10:31;;;;;;;3.10;2.90;;;27.80;50.50;;;;;;6145199;23;20169;-82
2022/06/19 07:12:57;;;;;;;2.97;2.63;;;27.80;50.50;;;;;;6119273;23;20381;-80
2022/06/19 07:15:23;;;;;;;2.50;2.20;;;27.80;50.60;;;;;;6084827;23;20398;-81
2022/06/19 07:17:49;;;;;;;3.40;2.87;;;27.80;50.50;;;;;;6110480;23;20152;-81
2022/06/19 07:20:19;;;;;;;3.00;2.70;;;27.80;50.50;;;;;;6109707;23;20382;-81
2022/06/19 07:22:45;;;;;;;4.13;2.50;;;27.80;50.60;;;;;;6110151;23;20366;-81
2022/06/19 07:25:20;;;;;;;2.90;2.70;;;27.80;50.60;;;;;;6085815;23;20392;-81
2022/06/19 07:27:46;;;;;;;3.10;2.80;;;27.80;50.60;;;;;;6088923;23;20191;-81
2022/06/19 07:30:22;;;;;;;3.30;2.70;;;27.80;50.60;;;;;;6090780;23;20429;-81
2022/06/19 07:32:48;;;;;;;4.37;2.47;;;27.80;50.60;;;;;;6089312;23;20381;-80
2022/06/19 07:35:14;;;;;;;4.13;2.97;;;27.80;50.60;;;;;;6110253;23;20382;-81
2022/06/19 07:37:40;;;;;;;3.30;3.00;;;27.80;50.60;;;;;;6084203;23;20418;-81
2022/06/19 07:40:09;;;;;;;3.63;2.87;;;27.80;51.20;;;;;;6083616;23;20394;-81
2022/06/19 07:42:35;;;;;;;3.73;2.60;;;27.80;50.60;;;;;;6109632;23;20154;-81
2022/06/19 07:45:01;;;;;;;5.97;2.93;;;27.80;50.60;;;;;;6109627;23;20378;-81
2022/06/19 07:50:12;;;;;;;4.03;2.50;;;27.80;50.70;;;;;;6108941;23;20194;-81
2022/06/19 07:52:43;;;;;;;3.20;2.77;;;27.80;50.70;;;;;;6084420;23;20381;-81
2022/06/19 07:55:11;;;;;;;2.63;2.43;;;27.80;50.70;;;;;;6108960;23;20354;-81
2022/06/19 07:57:38;;;;;;;2.50;2.30;;;27.80;50.70;;;;;;6084151;23;20382;-81
2022/06/19 08:00:06;;;;;;;3.40;3.10;;;27.80;50.70;;;;;;6110438;23;20369;-81
2022/06/19 08:02:32;;;;;;;2.57;2.20;;;27.80;50.70;;;;;;6083743;23;20394;-81
2022/06/19 08:04:58;;;;;;;2.80;2.53;;;27.80;50.70;;;;;;6091956;23;20410;-82
2022/06/19 08:07:24;;;;;;;2.77;2.57;;;27.80;50.70;;;;;;6094339;23;20164;-82
2022/06/19 08:09:53;;;;;;;3.43;2.50;;;27.80;50.70;;;;;;6117929;23;20476;-82
2022/06/19 08:12:20;;;;;;;3.20;2.87;;;27.80;50.70;;;;;;6093369;23;20373;-81
2022/06/19 08:14:50;;;;;;;3.37;2.33;;;27.80;50.70;;;;;;6140486;23;20432;-81
2022/06/19 08:17:16;;;;;;;3.70;2.87;;;27.80;50.70;;;;;;6121933;23;20377;-82
2022/06/19 08:19:43;;;;;;;2.83;2.63;;;27.80;50.70;;;;;;6121831;23;20404;-81
2022/06/19 08:22:15;;;;;;;2.83;2.50;;;27.80;50.80;;;;;;6120293;23;20179;-85
2022/06/19 08:24:43;;;;;;;4.43;2.83;;;27.80;50.90;;;;;;6117735;23;20377;-82
2022/06/19 08:27:09;;;;;;;2.73;2.53;;;27.80;50.90;;;;;;6145532;23;20377;-84
2022/06/19 08:29:37;;;;;;;2.87;2.57;;;27.90;50.90;;;;;;6148018;23;20460;-84
2022/06/19 08:32:04;;;;;;;4.30;2.60;;;27.80;50.80;;;;;;6121197;23;20153;-84
2022/06/19 08:34:29;;;;;;;3.13;2.30;;;27.80;50.80;;;;;;6118757;23;20381;-84
2022/06/19 08:36:58;;;;;;;4.73;2.70;;;27.90;50.90;;;;;;6147984;23;20446;-82
2022/06/19 08:39:25;;;;;;;3.93;2.77;;;27.90;50.90;;;;;;6120030;23;20193;-82
2022/06/19 08:42:28;;;;;;;3.20;2.57;;;27.90;50.90;;;;;;6122023;23;20389;-81
2022/06/19 08:45:30;;;;;;;2.97;2.50;;;27.90;50.90;;;;;;6122403;23;20385;-81
2022/06/19 08:48:27;;;;;;;3.10;2.33;;;27.90;50.90;;;;;;6037376;23;20391;-82
2022/06/19 08:51:02;;;;;;;2.60;2.40;;;27.80;50.90;;;;;;6060710;23;20394;-82
2022/06/19 08:54:10;;;;;;;2.87;2.57;;;27.80;50.90;;;;;;6061745;23;20414;-82
2022/06/19 08:57:11;;;;;;;7.37;4.40;;;27.80;50.90;;;;;;6002322;24;20384;-81
2022/06/19 08:59:58;;;;;;;3.00;2.70;;;27.80;50.90;;;;;;6000706;24;20400;-81
2022/06/19 09:02:50;;;;;;;2.73;2.53;;;27.80;51.00;;;;;;6003431;24;20413;-81
2022/06/19 09:05:55;;;;;;;2.47;2.27;;;27.80;51.10;;;;;;6003913;24;20449;-81
2022/06/19 09:08:26;;;;;;;2.50;2.30;;;27.80;51.20;;;;;;6005005;24;20389;-82
2022/06/19 09:11:22;;;;;;;3.13;2.57;;;27.90;51.30;;;;;;6004995;24;20422;-81
2022/06/19 09:14:03;;;;;;;4.07;2.63;;;27.90;51.30;;;;;;6006499;24;20432;-81
2022/06/19 09:16:39;;;;;;;2.90;2.60;;;27.90;51.30;;;;;;6005872;24;20776;-83
2022/06/19 09:19:33;;;;;;;2.93;2.57;;;27.90;51.20;;;;;;5981010;24;20397;-83
2022/06/19 09:22:30;;;;;;;3.67;2.43;;;27.90;51.20;;;;;;5977399;24;20378;-81
2022/06/19 09:25:25;;;;;;;3.10;2.70;;;27.90;51.20;;;;;;5969733;24;20394;-80
2022/06/19 09:28:01;;;;;;;3.33;2.40;;;27.90;51.20;;;;;;5970687;24;20479;-80
2022/06/19 09:30:35;;;;;;;4.50;3.20;;;27.90;51.20;;;;;;5946818;24;20424;-80
2022/06/19 09:33:09;;;;;;;4.63;3.60;;;27.90;51.20;;;;;;5975661;24;20381;-80
2022/06/19 09:35:44;;;;;;;3.43;2.80;;;27.90;51.20;;;;;;5996469;24;20408;-80
2022/06/19 09:38:24;;;;;;;4.60;2.83;;;27.90;51.20;;;;;;5977151;24;20369;-79
2022/06/19 09:40:59;;;;;;;3.23;2.87;;;27.90;51.20;;;;;;5974689;24;20406;-80
2022/06/19 09:43:39;;;;;;;3.20;2.90;;;27.90;51.10;;;;;;5970711;24;20486;-82
2022/06/19 09:46:12;;;;;;;3.43;2.60;;;27.90;51.10;;;;;;5997797;24;20410;-83
2022/06/19 09:49:00;;;;;;;4.20;2.43;;;27.90;51.10;;;;;;5995305;24;20369;-81
2022/06/19 09:51:36;;;;;;;3.70;3.40;;;27.90;51.10;;;;;;5997756;24;20357;-82
2022/06/19 09:54:17;;;;;;;5.87;3.33;;;28.00;51.20;;;;;;5998085;24;20369;-82
2022/06/19 09:57:06;;;;;;;6.57;4.40;;;27.90;51.10;;;;;;5974242;24;20393;-81
2022/06/19 09:59:53;;;;;;;5.73;3.03;;;28.00;51.20;;;;;;6059802;23;20496;-80
2022/06/19 10:02:37;;;;;;;5.13;3.50;;;28.00;51.20;;;;;;6113351;23;20382;-82
2022/06/19 10:05:09;;;;;;;4.30;3.80;;;27.90;51.20;;;;;;6112864;23;20381;-82
2022/06/19 10:07:46;;;;;;;5.70;3.30;;;27.90;51.20;;;;;;6112579;23;20359;-82
2022/06/19 10:10:36;;;;;;;5.00;3.77;;;28.00;51.30;;;;;;6113605;23;20405;-80
2022/06/19 10:13:11;;;;;;;5.97;3.53;;;28.00;51.20;;;;;;6122890;23;20402;-80
2022/06/19 10:15:37;;;;;;;3.80;3.30;;;28.00;51.20;;;;;;6151820;23;20343;-79
2022/06/19 10:18:20;;;;;;;3.53;3.23;;;28.00;51.20;;;;;;6150580;23;20371;-78
2022/06/19 10:24:36;;;;;;;3.80;2.47;;;28.00;51.20;;;;;;6004479;24;20489;-79
2022/06/19 10:27:31;;;;;;;5.07;3.47;;;28.00;51.30;;;;;;5999693;24;20449;-79
2022/06/19 10:30:05;;;;;;;2.83;2.63;;;28.00;51.30;;;;;;5962829;24;20196;-78
2022/06/19 10:33:02;;;;;;;4.10;3.47;;;28.00;51.40;;;;;;5997362;24;20467;-79
2022/06/19 10:35:35;;;;;;;4.40;3.57;;;28.00;51.30;;;;;;5973252;24;20490;-79
2022/06/19 10:38:31;;;;;;;3.67;3.33;;;28.00;51.30;;;;;;5997277;24;20441;-79
2022/06/19 10:41:08;;;;;;;3.67;3.27;;;28.10;51.40;;;;;;5998242;24;20381;-79
2022/06/19 10:44:00;;;;;;;3.40;2.77;;;28.10;51.40;;;;;;5996975;24;20561;-79
2022/06/19 10:46:26;;;;;;;4.10;3.10;;;28.10;51.40;;;;;;5996623;24;20382;-79
2022/06/19 10:49:04;;;;;;;3.37;3.07;;;28.10;51.40;;;;;;5972945;24;20421;-79
2022/06/19 10:51:49;;;;;;;3.90;3.50;;;28.10;51.40;;;;;;5995959;24;20376;-79
2022/06/19 10:54:35;;;;;;;3.50;3.20;;;28.10;51.40;;;;;;6022327;23;20379;-79
2022/06/19 10:57:26;;;;;;;4.10;3.40;;;28.10;51.40;;;;;;6115069;23;20879;-79
2022/06/19 10:59:52;;;;;;;4.10;2.93;;;28.10;51.40;;;;;;6116129;23;20393;-79
2022/06/19 11:06:02;;;;;;;3.47;3.17;;;28.10;51.40;;;;;;6142878;23;20168;-80
2022/06/19 11:08:34;;;;;;;3.27;2.77;;;28.10;51.40;;;;;;6116265;23;20918;-80
2022/06/19 11:11:01;;;;;;;4.67;3.60;;;28.10;51.50;;;;;;6117000;23;20381;-79
2022/06/19 11:13:58;;;;;;;5.00;3.77;;;28.10;51.50;;;;;;6141554;23;20389;-80
2022/06/19 11:16:24;;;;;;;4.50;3.13;;;28.20;51.60;;;;;;6115244;23;20400;-80
2022/06/19 11:18:54;;;;;;;4.10;3.70;;;28.20;51.60;;;;;;6115740;23;20444;-80
2022/06/19 11:21:24;;;;;;;3.87;3.30;;;28.20;51.60;;;;;;6142192;23;20380;-80
2022/06/19 11:23:52;;;;;;;4.10;3.50;;;28.20;51.60;;;;;;6141236;23;20369;-81
2022/06/19 11:26:40;;;;;;;3.90;3.50;;;28.20;51.60;;;;;;6115890;23;20392;-80
2022/06/19 11:29:15;;;;;;;4.50;3.00;;;28.20;51.60;;;;;;6115718;23;20475;-80
2022/06/19 11:32:08;;;;;;;5.73;3.83;;;28.30;51.60;;;;;;6115923;23;20390;-80
2022/06/19 11:34:46;;;;;;;7.50;3.47;;;28.30;51.70;;;;;;6141863;23;20867;-80
2022/06/19 11:37:23;;;;;;;4.60;3.07;;;28.20;51.60;;;;;;6115077;23;20412;-80
2022/06/19 11:39:59;;;;;;;13.60;3.77;;;28.30;51.70;;;;;;6142675;23;20385;-80
2022/06/19 11:42:47;;;;;;;4.07;3.47;;;28.20;51.60;;;;;;6144727;23;20364;-81
2022/06/19 11:45:13;;;;;;;6.27;3.67;;;28.30;51.70;;;;;;6117951;23;20384;-82
2022/06/19 11:47:59;;;;;;;4.50;3.00;;;28.20;51.60;;;;;;6117265;23;20708;-82
2022/06/19 11:50:35;;;;;;;4.87;4.13;;;28.30;51.70;;;;;;6144212;23;20165;-81
2022/06/19 11:53:10;;;;;;;9.40;4.00;;;28.30;51.70;;;;;;6117923;23;20391;-82
2022/06/19 11:55:42;;;;;;;4.20;3.23;;;28.30;51.70;;;;;;6143535;23;20760;-81
2022/06/19 11:58:36;;;;;;;5.40;3.20;;;28.30;51.70;;;;;;6144971;23;20357;-81
2022/06/19 16:57:06;;;;;;;3.70;3.20;;;28.70;52.80;;;;;;6121727;23;20439;31
